sensor_id;sensor_type;location;lat;lon;timestamp;P1;durP1;ratioP1;P2;durP2;ratioP2
727;SDS011;347;48.780;9.158;2022-07-23T00:00:35;16.10;;;15.37;;
727;SDS011;347;48.780;9.158;2022-07-23T00:03:00;17.23;;;16.43;;
727;SDS011;347;48.780;9.158;2022-07-23T00:05:26;16.73;;;15.90;;
727;SDS011;347;48.780;9.158;2022-07-23T00:07:52;16.73;;;15.93;;
727;SDS011;347;48.780;9.158;2022-07-23T00:10:17;18.33;;;17.30;;
727;SDS011;347;48.780;9.158;2022-07-23T00:12:43;16.53;;;15.70;;
727;SDS011;347;48.780;9.158;2022-07-23T00:15:09;16.83;;;16.10;;
727;SDS011;347;48.780;9.158;2022-07-23T00:17:35;17.50;;;16.60;;
727;SDS011;347;48.780;9.158;2022-07-23T00:20:01;17.60;;;16.60;;
727;SDS011;347;48.780;9.158;2022-07-23T00:22:27;17.70;;;16.50;;
727;SDS011;347;48.780;9.158;2022-07-23T00:24:54;16.70;;;15.90;;
727;SDS011;347;48.780;9.158;2022-07-23T00:27:20;17.83;;;16.93;;
727;SDS011;347;48.780;9.158;2022-07-23T00:29:46;16.60;;;15.80;;
727;SDS011;347;48.780;9.158;2022-07-23T00:32:12;17.40;;;16.60;;
727;SDS011;347;48.780;9.158;2022-07-23T00:34:37;17.37;;;16.57;;
727;SDS011;347;48.780;9.158;2022-07-23T00:37:03;17.00;;;16.30;;
727;SDS011;347;48.780;9.158;2022-07-23T00:39:29;18.17;;;16.87;;
727;SDS011;347;48.780;9.158;2022-07-23T00:41:55;17.80;;;16.90;;
727;SDS011;347;48.780;9.158;2022-07-23T00:44:22;17.80;;;17.00;;
727;SDS011;347;48.780;9.158;2022-07-23T00:46:55;17.40;;;16.60;;
727;SDS011;347;48.780;9.158;2022-07-23T00:49:23;17.57;;;16.77;;
727;SDS011;347;48.780;9.158;2022-07-23T00:51:50;18.30;;;17.20;;
727;SDS011;347;48.780;9.158;2022-07-23T00:54:17;17.87;;;17.03;;
727;SDS011;347;48.780;9.158;2022-07-23T00:56:44;18.37;;;17.57;;
727;SDS011;347;48.780;9.158;2022-07-23T00:59:12;17.70;;;16.73;;
727;SDS011;347;48.780;9.158;2022-07-23T01:01:38;16.80;;;16.20;;
727;SDS011;347;48.780;9.158;2022-07-23T01:04:04;16.97;;;16.27;;
727;SDS011;347;48.780;9.158;2022-07-23T01:06:31;18.10;;;17.33;;
727;SDS011;347;48.780;9.158;2022-07-23T01:09:00;17.40;;;16.60;;
727;SDS011;347;48.780;9.158;2022-07-23T01:11:26;17.80;;;16.90;;
727;SDS011;347;48.780;9.158;2022-07-23T01:13:52;18.63;;;17.83;;
727;SDS011;347;48.780;9.158;2022-07-23T01:16:18;18.13;;;17.23;;
727;SDS011;347;48.780;9.158;2022-07-23T01:18:44;16.90;;;16.20;;
727;SDS011;347;48.780;9.158;2022-07-23T01:21:11;17.90;;;17.10;;
727;SDS011;347;48.780;9.158;2022-07-23T01:23:41;17.60;;;16.73;;
727;SDS011;347;48.780;9.158;2022-07-23T01:26:07;17.53;;;16.70;;
727;SDS011;347;48.780;9.158;2022-07-23T01:28:32;17.10;;;16.40;;
727;SDS011;347;48.780;9.158;2022-07-23T01:30:58;18.23;;;17.37;;
727;SDS011;347;48.780;9.158;2022-07-23T01:33:32;19.13;;;17.93;;
727;SDS011;347;48.780;9.158;2022-07-23T01:35:58;17.07;;;16.37;;
727;SDS011;347;48.780;9.158;2022-07-23T01:38:24;17.10;;;16.30;;
727;SDS011;347;48.780;9.158;2022-07-23T01:40:49;17.80;;;17.00;;
727;SDS011;347;48.780;9.158;2022-07-23T01:43:15;17.00;;;16.20;;
727;SDS011;347;48.780;9.158;2022-07-23T01:45:41;18.07;;;16.97;;
727;SDS011;347;48.780;9.158;2022-07-23T01:48:09;17.20;;;16.50;;
727;SDS011;347;48.780;9.158;2022-07-23T01:50:35;17.63;;;16.83;;
727;SDS011;347;48.780;9.158;2022-07-23T01:53:01;18.20;;;17.30;;
727;SDS011;347;48.780;9.158;2022-07-23T01:55:26;17.53;;;16.63;;
727;SDS011;347;48.780;9.158;2022-07-23T01:57:52;17.77;;;16.97;;
727;SDS011;347;48.780;9.158;2022-07-23T02:00:18;18.57;;;17.77;;
727;SDS011;347;48.780;9.158;2022-07-23T02:02:43;19.53;;;18.43;;
727;SDS011;347;48.780;9.158;2022-07-23T02:05:09;18.90;;;18.17;;
727;SDS011;347;48.780;9.158;2022-07-23T02:07:36;17.73;;;17.03;;
727;SDS011;347;48.780;9.158;2022-07-23T02:10:02;18.30;;;17.50;;
727;SDS011;347;48.780;9.158;2022-07-23T02:12:27;18.60;;;17.60;;
727;SDS011;347;48.780;9.158;2022-07-23T02:14:53;18.37;;;17.57;;
727;SDS011;347;48.780;9.158;2022-07-23T02:17:19;18.13;;;17.23;;
727;SDS011;347;48.780;9.158;2022-07-23T02:19:45;18.10;;;17.40;;
727;SDS011;347;48.780;9.158;2022-07-23T02:22:11;18.40;;;17.50;;
727;SDS011;347;48.780;9.158;2022-07-23T02:24:37;17.53;;;16.63;;
727;SDS011;347;48.780;9.158;2022-07-23T02:27:02;18.47;;;17.57;;
727;SDS011;347;48.780;9.158;2022-07-23T02:29:28;19.13;;;18.07;;
727;SDS011;347;48.780;9.158;2022-07-23T02:31:54;18.83;;;17.67;;
727;SDS011;347;48.780;9.158;2022-07-23T02:34:20;19.00;;;18.17;;
727;SDS011;347;48.780;9.158;2022-07-23T02:36:45;19.40;;;18.60;;
727;SDS011;347;48.780;9.158;2022-07-23T02:39:11;18.57;;;17.77;;
727;SDS011;347;48.780;9.158;2022-07-23T02:41:37;18.47;;;17.60;;
727;SDS011;347;48.780;9.158;2022-07-23T02:44:02;18.80;;;18.00;;
727;SDS011;347;48.780;9.158;2022-07-23T02:46:28;18.70;;;17.90;;
727;SDS011;347;48.780;9.158;2022-07-23T02:48:54;18.40;;;17.40;;
727;SDS011;347;48.780;9.158;2022-07-23T02:51:20;19.17;;;18.20;;
727;SDS011;347;48.780;9.158;2022-07-23T02:53:45;18.73;;;17.90;;
727;SDS011;347;48.780;9.158;2022-07-23T02:56:11;17.97;;;17.17;;
727;SDS011;347;48.780;9.158;2022-07-23T02:58:37;19.53;;;18.73;;
727;SDS011;347;48.780;9.158;2022-07-23T03:01:02;19.27;;;18.27;;
727;SDS011;347;48.780;9.158;2022-07-23T03:03:28;18.30;;;17.30;;
727;SDS011;347;48.780;9.158;2022-07-23T03:05:54;18.97;;;18.17;;
727;SDS011;347;48.780;9.158;2022-07-23T03:08:19;18.97;;;18.17;;
727;SDS011;347;48.780;9.158;2022-07-23T03:10:45;19.47;;;18.50;;
727;SDS011;347;48.780;9.158;2022-07-23T03:13:11;18.33;;;17.50;;
727;SDS011;347;48.780;9.158;2022-07-23T03:15:37;19.23;;;18.33;;
727;SDS011;347;48.780;9.158;2022-07-23T03:18:02;19.60;;;18.70;;
727;SDS011;347;48.780;9.158;2022-07-23T03:20:28;19.57;;;18.67;;
727;SDS011;347;48.780;9.158;2022-07-23T03:22:54;18.73;;;17.83;;
727;SDS011;347;48.780;9.158;2022-07-23T03:25:20;20.30;;;19.40;;
727;SDS011;347;48.780;9.158;2022-07-23T03:27:45;19.30;;;18.20;;
727;SDS011;347;48.780;9.158;2022-07-23T03:30:11;19.37;;;18.40;;
727;SDS011;347;48.780;9.158;2022-07-23T03:32:37;19.30;;;18.20;;
727;SDS011;347;48.780;9.158;2022-07-23T03:35:03;19.43;;;18.63;;
727;SDS011;347;48.780;9.158;2022-07-23T03:37:29;19.40;;;18.50;;
727;SDS011;347;48.780;9.158;2022-07-23T03:39:55;19.13;;;18.23;;
727;SDS011;347;48.780;9.158;2022-07-23T03:42:21;19.43;;;18.63;;
727;SDS011;347;48.780;9.158;2022-07-23T03:44:46;19.63;;;18.73;;
727;SDS011;347;48.780;9.158;2022-07-23T03:47:15;18.50;;;17.70;;
727;SDS011;347;48.780;9.158;2022-07-23T03:49:42;19.80;;;18.93;;
727;SDS011;347;48.780;9.158;2022-07-23T03:52:08;19.37;;;18.57;;
727;SDS011;347;48.780;9.158;2022-07-23T03:54:33;19.80;;;18.90;;
727;SDS011;347;48.780;9.158;2022-07-23T03:56:59;18.30;;;17.37;;
727;SDS011;347;48.780;9.158;2022-07-23T03:59:25;19.07;;;18.30;;
727;SDS011;347;48.780;9.158;2022-07-23T04:01:50;19.40;;;18.33;;
727;SDS011;347;48.780;9.158;2022-07-23T04:04:16;18.83;;;18.03;;
727;SDS011;347;48.780;9.158;2022-07-23T04:06:42;20.03;;;19.07;;
727;SDS011;347;48.780;9.158;2022-07-23T04:09:17;20.73;;;19.83;;
727;SDS011;347;48.780;9.158;2022-07-23T04:11:45;20.00;;;19.10;;
727;SDS011;347;48.780;9.158;2022-07-23T04:14:14;20.50;;;19.50;;
727;SDS011;347;48.780;9.158;2022-07-23T04:16:39;19.90;;;18.57;;
727;SDS011;347;48.780;9.158;2022-07-23T04:19:05;20.80;;;19.90;;
727;SDS011;347;48.780;9.158;2022-07-23T04:21:31;20.03;;;18.90;;
727;SDS011;347;48.780;9.158;2022-07-23T04:23:56;19.97;;;18.97;;
727;SDS011;347;48.780;9.158;2022-07-23T04:26:22;19.10;;;18.20;;
727;SDS011;347;48.780;9.158;2022-07-23T04:28:50;19.80;;;18.90;;
727;SDS011;347;48.780;9.158;2022-07-23T04:31:16;19.60;;;18.80;;
727;SDS011;347;48.780;9.158;2022-07-23T04:33:42;20.07;;;19.07;;
727;SDS011;347;48.780;9.158;2022-07-23T04:36:08;20.50;;;19.40;;
727;SDS011;347;48.780;9.158;2022-07-23T04:38:34;20.07;;;19.07;;
727;SDS011;347;48.780;9.158;2022-07-23T04:40:59;20.30;;;19.40;;
727;SDS011;347;48.780;9.158;2022-07-23T04:43:25;20.13;;;19.23;;
727;SDS011;347;48.780;9.158;2022-07-23T04:45:51;19.30;;;18.47;;
727;SDS011;347;48.780;9.158;2022-07-23T04:48:17;18.83;;;18.03;;
727;SDS011;347;48.780;9.158;2022-07-23T04:50:43;18.87;;;17.97;;
727;SDS011;347;48.780;9.158;2022-07-23T04:53:09;19.47;;;18.50;;
727;SDS011;347;48.780;9.158;2022-07-23T04:55:34;19.77;;;18.77;;
727;SDS011;347;48.780;9.158;2022-07-23T04:58:00;19.40;;;18.53;;
727;SDS011;347;48.780;9.158;2022-07-23T05:00:26;19.77;;;18.87;;
727;SDS011;347;48.780;9.158;2022-07-23T05:02:52;19.97;;;19.03;;
727;SDS011;347;48.780;9.158;2022-07-23T05:05:17;19.10;;;18.20;;
727;SDS011;347;48.780;9.158;2022-07-23T05:07:43;19.40;;;18.40;;
727;SDS011;347;48.780;9.158;2022-07-23T05:10:09;18.67;;;17.87;;
727;SDS011;347;48.780;9.158;2022-07-23T05:12:35;20.17;;;19.17;;
727;SDS011;347;48.780;9.158;2022-07-23T05:15:00;20.67;;;19.67;;
727;SDS011;347;48.780;9.158;2022-07-23T05:17:26;21.20;;;20.30;;
727;SDS011;347;48.780;9.158;2022-07-23T05:19:52;20.87;;;19.97;;
727;SDS011;347;48.780;9.158;2022-07-23T05:22:18;20.60;;;19.70;;
727;SDS011;347;48.780;9.158;2022-07-23T05:24:46;20.70;;;19.50;;
727;SDS011;347;48.780;9.158;2022-07-23T05:27:21;20.40;;;19.50;;
727;SDS011;347;48.780;9.158;2022-07-23T05:29:47;19.90;;;19.00;;
727;SDS011;347;48.780;9.158;2022-07-23T05:32:12;19.30;;;18.40;;
727;SDS011;347;48.780;9.158;2022-07-23T05:34:38;20.10;;;19.10;;
727;SDS011;347;48.780;9.158;2022-07-23T05:37:03;20.43;;;19.53;;
727;SDS011;347;48.780;9.158;2022-07-23T05:39:30;19.23;;;18.33;;
727;SDS011;347;48.780;9.158;2022-07-23T05:41:55;21.37;;;20.47;;
727;SDS011;347;48.780;9.158;2022-07-23T05:44:22;20.67;;;19.77;;
727;SDS011;347;48.780;9.158;2022-07-23T05:46:47;19.27;;;18.37;;
727;SDS011;347;48.780;9.158;2022-07-23T05:49:13;21.37;;;19.80;;
727;SDS011;347;48.780;9.158;2022-07-23T05:51:39;21.13;;;19.90;;
727;SDS011;347;48.780;9.158;2022-07-23T05:54:05;20.90;;;19.80;;
727;SDS011;347;48.780;9.158;2022-07-23T05:56:30;20.17;;;19.27;;
727;SDS011;347;48.780;9.158;2022-07-23T05:58:56;21.57;;;20.57;;
727;SDS011;347;48.780;9.158;2022-07-23T06:01:22;21.80;;;20.60;;
727;SDS011;347;48.780;9.158;2022-07-23T06:03:48;20.93;;;19.93;;
727;SDS011;347;48.780;9.158;2022-07-23T06:06:14;21.57;;;20.47;;
727;SDS011;347;48.780;9.158;2022-07-23T06:08:39;22.27;;;20.97;;
727;SDS011;347;48.780;9.158;2022-07-23T06:11:05;20.57;;;19.67;;
727;SDS011;347;48.780;9.158;2022-07-23T06:13:34;21.20;;;20.10;;
727;SDS011;347;48.780;9.158;2022-07-23T06:16:08;21.10;;;19.90;;
727;SDS011;347;48.780;9.158;2022-07-23T06:18:34;19.23;;;18.37;;
727;SDS011;347;48.780;9.158;2022-07-23T06:21:00;21.30;;;20.20;;
727;SDS011;347;48.780;9.158;2022-07-23T06:23:26;21.00;;;20.00;;
727;SDS011;347;48.780;9.158;2022-07-23T06:25:51;20.73;;;19.73;;
727;SDS011;347;48.780;9.158;2022-07-23T06:28:17;21.07;;;20.03;;
727;SDS011;347;48.780;9.158;2022-07-23T06:30:43;21.10;;;20.10;;
727;SDS011;347;48.780;9.158;2022-07-23T06:33:09;21.20;;;20.20;;
727;SDS011;347;48.780;9.158;2022-07-23T06:35:36;21.07;;;20.17;;
727;SDS011;347;48.780;9.158;2022-07-23T06:38:02;21.10;;;20.10;;
727;SDS011;347;48.780;9.158;2022-07-23T06:40:28;20.57;;;19.47;;
727;SDS011;347;48.780;9.158;2022-07-23T06:42:53;22.20;;;20.40;;
727;SDS011;347;48.780;9.158;2022-07-23T06:45:19;22.03;;;20.80;;
727;SDS011;347;48.780;9.158;2022-07-23T06:47:48;19.87;;;18.97;;
727;SDS011;347;48.780;9.158;2022-07-23T06:50:14;19.43;;;18.53;;
727;SDS011;347;48.780;9.158;2022-07-23T06:53:12;20.40;;;19.40;;
727;SDS011;347;48.780;9.158;2022-07-23T06:55:58;21.17;;;20.00;;
727;SDS011;347;48.780;9.158;2022-07-23T06:58:24;20.40;;;19.40;;
727;SDS011;347;48.780;9.158;2022-07-23T07:00:50;19.83;;;18.93;;
727;SDS011;347;48.780;9.158;2022-07-23T07:03:19;20.07;;;19.17;;
727;SDS011;347;48.780;9.158;2022-07-23T07:05:45;19.90;;;18.90;;
727;SDS011;347;48.780;9.158;2022-07-23T07:08:11;20.07;;;19.03;;
727;SDS011;347;48.780;9.158;2022-07-23T07:10:36;19.33;;;18.20;;
727;SDS011;347;48.780;9.158;2022-07-23T07:13:04;20.47;;;19.33;;
727;SDS011;347;48.780;9.158;2022-07-23T07:15:30;19.40;;;18.60;;
727;SDS011;347;48.780;9.158;2022-07-23T07:17:59;19.30;;;18.27;;
727;SDS011;347;48.780;9.158;2022-07-23T07:20:28;20.53;;;19.43;;
727;SDS011;347;48.780;9.158;2022-07-23T07:22:57;21.73;;;20.60;;
727;SDS011;347;48.780;9.158;2022-07-23T07:25:29;20.13;;;19.23;;
727;SDS011;347;48.780;9.158;2022-07-23T07:27:55;19.73;;;18.63;;
727;SDS011;347;48.780;9.158;2022-07-23T07:30:30;19.73;;;18.73;;
727;SDS011;347;48.780;9.158;2022-07-23T07:32:59;20.43;;;19.40;;
727;SDS011;347;48.780;9.158;2022-07-23T07:35:25;20.57;;;19.40;;
727;SDS011;347;48.780;9.158;2022-07-23T07:37:51;20.63;;;19.63;;
727;SDS011;347;48.780;9.158;2022-07-23T07:40:16;20.57;;;19.57;;
727;SDS011;347;48.780;9.158;2022-07-23T07:42:49;19.97;;;18.93;;
727;SDS011;347;48.780;9.158;2022-07-23T07:45:16;19.57;;;18.60;;
727;SDS011;347;48.780;9.158;2022-07-23T07:47:44;19.70;;;18.80;;
727;SDS011;347;48.780;9.158;2022-07-23T07:50:17;19.70;;;18.60;;
727;SDS011;347;48.780;9.158;2022-07-23T07:52:56;19.20;;;18.20;;
727;SDS011;347;48.780;9.158;2022-07-23T07:55:22;19.53;;;18.53;;
727;SDS011;347;48.780;9.158;2022-07-23T07:57:48;20.67;;;19.77;;
727;SDS011;347;48.780;9.158;2022-07-23T08:00:16;21.47;;;20.47;;
727;SDS011;347;48.780;9.158;2022-07-23T08:02:48;19.33;;;18.53;;
727;SDS011;347;48.780;9.158;2022-07-23T08:05:23;19.07;;;18.27;;
727;SDS011;347;48.780;9.158;2022-07-23T08:07:51;21.60;;;20.70;;
727;SDS011;347;48.780;9.158;2022-07-23T08:10:35;20.20;;;19.20;;
727;SDS011;347;48.780;9.158;2022-07-23T08:13:01;20.47;;;19.50;;
727;SDS011;347;48.780;9.158;2022-07-23T08:15:28;19.73;;;18.73;;
727;SDS011;347;48.780;9.158;2022-07-23T08:17:55;21.00;;;19.90;;
727;SDS011;347;48.780;9.158;2022-07-23T08:20:21;20.40;;;19.50;;
727;SDS011;347;48.780;9.158;2022-07-23T08:22:52;20.17;;;19.27;;
727;SDS011;347;48.780;9.158;2022-07-23T08:25:23;21.53;;;20.53;;
727;SDS011;347;48.780;9.158;2022-07-23T08:27:54;19.90;;;18.90;;
727;SDS011;347;48.780;9.158;2022-07-23T08:30:20;18.97;;;18.10;;
727;SDS011;347;48.780;9.158;2022-07-23T08:38:00;20.33;;;19.23;;
727;SDS011;347;48.780;9.158;2022-07-23T08:40:29;20.00;;;19.10;;
727;SDS011;347;48.780;9.158;2022-07-23T08:42:57;19.80;;;18.70;;
727;SDS011;347;48.780;9.158;2022-07-23T08:45:23;20.10;;;19.30;;
727;SDS011;347;48.780;9.158;2022-07-23T08:47:54;19.20;;;18.30;;
727;SDS011;347;48.780;9.158;2022-07-23T08:50:21;20.00;;;19.10;;
727;SDS011;347;48.780;9.158;2022-07-23T08:52:48;19.30;;;18.30;;
727;SDS011;347;48.780;9.158;2022-07-23T08:55:19;20.00;;;19.20;;
727;SDS011;347;48.780;9.158;2022-07-23T08:57:47;19.57;;;18.67;;
727;SDS011;347;48.780;9.158;2022-07-23T09:00:14;19.20;;;18.30;;
727;SDS011;347;48.780;9.158;2022-07-23T09:02:41;19.93;;;19.03;;
727;SDS011;347;48.780;9.158;2022-07-23T09:05:11;19.13;;;18.13;;
727;SDS011;347;48.780;9.158;2022-07-23T09:08:02;19.40;;;18.50;;
727;SDS011;347;48.780;9.158;2022-07-23T09:10:54;18.70;;;17.90;;
727;SDS011;347;48.780;9.158;2022-07-23T09:13:27;21.50;;;20.50;;
727;SDS011;347;48.780;9.158;2022-07-23T09:15:54;19.03;;;17.90;;
727;SDS011;347;48.780;9.158;2022-07-23T09:18:30;18.80;;;18.00;;
727;SDS011;347;48.780;9.158;2022-07-23T09:24:03;20.83;;;19.83;;
727;SDS011;347;48.780;9.158;2022-07-23T09:29:23;18.37;;;17.57;;
727;SDS011;347;48.780;9.158;2022-07-23T09:31:51;18.83;;;17.93;;
727;SDS011;347;48.780;9.158;2022-07-23T09:36:49;19.20;;;18.30;;
727;SDS011;347;48.780;9.158;2022-07-23T09:39:22;19.43;;;18.23;;
727;SDS011;347;48.780;9.158;2022-07-23T09:41:54;18.60;;;17.80;;
727;SDS011;347;48.780;9.158;2022-07-23T09:44:20;17.80;;;17.00;;
727;SDS011;347;48.780;9.158;2022-07-23T09:46:47;17.53;;;16.70;;
727;SDS011;347;48.780;9.158;2022-07-23T09:49:19;18.60;;;17.77;;
727;SDS011;347;48.780;9.158;2022-07-23T09:51:51;18.60;;;17.50;;
727;SDS011;347;48.780;9.158;2022-07-23T09:56:55;17.40;;;16.50;;
727;SDS011;347;48.780;9.158;2022-07-23T09:59:23;18.57;;;17.70;;
727;SDS011;347;48.780;9.158;2022-07-23T10:01:52;19.07;;;18.17;;
727;SDS011;347;48.780;9.158;2022-07-23T10:04:20;19.20;;;18.30;;
727;SDS011;347;48.780;9.158;2022-07-23T10:06:48;18.73;;;17.77;;
727;SDS011;347;48.780;9.158;2022-07-23T10:09:18;18.90;;;17.90;;
727;SDS011;347;48.780;9.158;2022-07-23T10:11:53;18.40;;;17.40;;
727;SDS011;347;48.780;9.158;2022-07-23T10:14:29;18.13;;;17.30;;
727;SDS011;347;48.780;9.158;2022-07-23T10:16:57;18.73;;;17.83;;
727;SDS011;347;48.780;9.158;2022-07-23T10:19:23;18.60;;;17.60;;
727;SDS011;347;48.780;9.158;2022-07-23T10:21:52;18.10;;;17.30;;
727;SDS011;347;48.780;9.158;2022-07-23T10:30:09;17.90;;;16.80;;
727;SDS011;347;48.780;9.158;2022-07-23T10:32:49;17.57;;;16.83;;
727;SDS011;347;48.780;9.158;2022-07-23T10:38:27;17.03;;;16.23;;
727;SDS011;347;48.780;9.158;2022-07-23T10:43:37;17.67;;;16.87;;
727;SDS011;347;48.780;9.158;2022-07-23T10:46:22;17.53;;;16.53;;
727;SDS011;347;48.780;9.158;2022-07-23T10:49:25;17.63;;;16.83;;
727;SDS011;347;48.780;9.158;2022-07-23T10:57:12;18.13;;;17.23;;
727;SDS011;347;48.780;9.158;2022-07-23T11:02:32;16.80;;;16.00;;
727;SDS011;347;48.780;9.158;2022-07-23T11:05:00;16.37;;;15.77;;
727;SDS011;347;48.780;9.158;2022-07-23T11:07:30;18.63;;;17.73;;
727;SDS011;347;48.780;9.158;2022-07-23T11:09:56;17.60;;;16.80;;
727;SDS011;347;48.780;9.158;2022-07-23T11:14:58;18.30;;;17.50;;
727;SDS011;347;48.780;9.158;2022-07-23T11:17:25;17.57;;;16.77;;
727;SDS011;347;48.780;9.158;2022-07-23T11:25:31;17.80;;;17.00;;
727;SDS011;347;48.780;9.158;2022-07-23T11:28:11;18.87;;;17.97;;
727;SDS011;347;48.780;9.158;2022-07-23T11:31:01;17.07;;;16.33;;
727;SDS011;347;48.780;9.158;2022-07-23T11:33:42;18.33;;;16.93;;
727;SDS011;347;48.780;9.158;2022-07-23T11:36:08;17.10;;;16.20;;
727;SDS011;347;48.780;9.158;2022-07-23T11:38:34;18.07;;;17.27;;
727;SDS011;347;48.780;9.158;2022-07-23T11:41:02;18.47;;;17.57;;
727;SDS011;347;48.780;9.158;2022-07-23T11:43:28;18.90;;;17.87;;
727;SDS011;347;48.780;9.158;2022-07-23T11:45:56;21.07;;;19.63;;
727;SDS011;347;48.780;9.158;2022-07-23T11:48:24;17.87;;;16.97;;
727;SDS011;347;48.780;9.158;2022-07-23T11:50:53;17.57;;;16.77;;
727;SDS011;347;48.780;9.158;2022-07-23T11:53:23;17.77;;;16.97;;
727;SDS011;347;48.780;9.158;2022-07-23T11:55:54;18.53;;;17.53;;
727;SDS011;347;48.780;9.158;2022-07-23T11:58:27;18.90;;;17.70;;
727;SDS011;347;48.780;9.158;2022-07-23T12:00:54;17.70;;;16.90;;
727;SDS011;347;48.780;9.158;2022-07-23T12:03:20;18.30;;;17.33;;
727;SDS011;347;48.780;9.158;2022-07-23T12:05:46;18.43;;;17.53;;
727;SDS011;347;48.780;9.158;2022-07-23T12:08:12;17.43;;;16.70;;
727;SDS011;347;48.780;9.158;2022-07-23T12:10:39;18.63;;;17.73;;
727;SDS011;347;48.780;9.158;2022-07-23T12:13:14;17.43;;;16.63;;
727;SDS011;347;48.780;9.158;2022-07-23T12:15:43;17.73;;;16.93;;
727;SDS011;347;48.780;9.158;2022-07-23T12:18:14;18.10;;;16.90;;
727;SDS011;347;48.780;9.158;2022-07-23T12:20:50;18.23;;;17.00;;
727;SDS011;347;48.780;9.158;2022-07-23T12:23:18;19.20;;;18.20;;
727;SDS011;347;48.780;9.158;2022-07-23T12:25:46;18.17;;;17.30;;
727;SDS011;347;48.780;9.158;2022-07-23T12:28:14;17.97;;;17.10;;
727;SDS011;347;48.780;9.158;2022-07-23T12:30:42;18.30;;;17.30;;
727;SDS011;347;48.780;9.158;2022-07-23T12:33:11;18.30;;;17.50;;
727;SDS011;347;48.780;9.158;2022-07-23T12:35:44;17.67;;;16.87;;
727;SDS011;347;48.780;9.158;2022-07-23T12:38:12;19.20;;;18.10;;
727;SDS011;347;48.780;9.158;2022-07-23T12:43:11;18.60;;;17.80;;
727;SDS011;347;48.780;9.158;2022-07-23T12:45:45;18.43;;;17.53;;
727;SDS011;347;48.780;9.158;2022-07-23T12:48:29;18.77;;;17.50;;
727;SDS011;347;48.780;9.158;2022-07-23T12:53:47;19.00;;;17.90;;
727;SDS011;347;48.780;9.158;2022-07-23T12:56:15;18.13;;;17.20;;
727;SDS011;347;48.780;9.158;2022-07-23T13:01:08;17.70;;;16.70;;
727;SDS011;347;48.780;9.158;2022-07-23T13:04:03;17.87;;;16.97;;
727;SDS011;347;48.780;9.158;2022-07-23T13:06:42;16.70;;;15.90;;
727;SDS011;347;48.780;9.158;2022-07-23T13:09:09;18.27;;;17.27;;
727;SDS011;347;48.780;9.158;2022-07-23T13:11:38;18.80;;;17.80;;
727;SDS011;347;48.780;9.158;2022-07-23T13:14:04;17.93;;;16.83;;
727;SDS011;347;48.780;9.158;2022-07-23T13:16:31;16.90;;;16.10;;
727;SDS011;347;48.780;9.158;2022-07-23T13:18:58;16.90;;;16.17;;
727;SDS011;347;48.780;9.158;2022-07-23T13:21:28;17.87;;;16.87;;
727;SDS011;347;48.780;9.158;2022-07-23T13:23:55;17.60;;;16.70;;
727;SDS011;347;48.780;9.158;2022-07-23T13:26:21;18.23;;;17.33;;
727;SDS011;347;48.780;9.158;2022-07-23T13:28:47;19.40;;;18.50;;
727;SDS011;347;48.780;9.158;2022-07-23T13:31:13;17.30;;;16.30;;
727;SDS011;347;48.780;9.158;2022-07-23T13:33:39;17.00;;;16.20;;
727;SDS011;347;48.780;9.158;2022-07-23T13:36:05;17.83;;;16.90;;
727;SDS011;347;48.780;9.158;2022-07-23T13:38:30;17.07;;;16.27;;
727;SDS011;347;48.780;9.158;2022-07-23T13:40:56;18.17;;;17.27;;
727;SDS011;347;48.780;9.158;2022-07-23T13:43:22;18.00;;;17.10;;
727;SDS011;347;48.780;9.158;2022-07-23T13:45:49;17.67;;;16.87;;
727;SDS011;347;48.780;9.158;2022-07-23T13:48:17;18.57;;;17.57;;
727;SDS011;347;48.780;9.158;2022-07-23T13:50:43;18.30;;;17.40;;
727;SDS011;347;48.780;9.158;2022-07-23T13:53:11;17.47;;;16.67;;
727;SDS011;347;48.780;9.158;2022-07-23T13:55:42;17.40;;;16.60;;
727;SDS011;347;48.780;9.158;2022-07-23T13:58:09;17.90;;;17.10;;
727;SDS011;347;48.780;9.158;2022-07-23T14:00:36;17.43;;;16.63;;
727;SDS011;347;48.780;9.158;2022-07-23T14:03:03;20.87;;;19.47;;
727;SDS011;347;48.780;9.158;2022-07-23T14:05:29;18.17;;;17.23;;
727;SDS011;347;48.780;9.158;2022-07-23T14:07:55;18.07;;;17.17;;
727;SDS011;347;48.780;9.158;2022-07-23T14:10:21;17.77;;;16.87;;
727;SDS011;347;48.780;9.158;2022-07-23T14:12:48;17.67;;;16.70;;
727;SDS011;347;48.780;9.158;2022-07-23T14:15:15;16.77;;;15.90;;
727;SDS011;347;48.780;9.158;2022-07-23T14:17:42;17.63;;;16.63;;
727;SDS011;347;48.780;9.158;2022-07-23T14:20:10;18.00;;;16.83;;
727;SDS011;347;48.780;9.158;2022-07-23T14:22:37;16.50;;;15.57;;
727;SDS011;347;48.780;9.158;2022-07-23T14:25:03;16.97;;;15.80;;
727;SDS011;347;48.780;9.158;2022-07-23T14:27:29;16.63;;;15.80;;
727;SDS011;347;48.780;9.158;2022-07-23T14:29:55;17.00;;;15.90;;
727;SDS011;347;48.780;9.158;2022-07-23T14:32:22;17.03;;;16.03;;
727;SDS011;347;48.780;9.158;2022-07-23T14:34:48;16.60;;;15.80;;
727;SDS011;347;48.780;9.158;2022-07-23T14:37:14;17.30;;;16.50;;
727;SDS011;347;48.780;9.158;2022-07-23T14:39:41;16.90;;;16.10;;
727;SDS011;347;48.780;9.158;2022-07-23T14:42:08;16.93;;;16.13;;
727;SDS011;347;48.780;9.158;2022-07-23T14:44:34;17.07;;;16.17;;
727;SDS011;347;48.780;9.158;2022-07-23T14:47:01;17.00;;;16.10;;
727;SDS011;347;48.780;9.158;2022-07-23T14:49:28;17.70;;;16.83;;
727;SDS011;347;48.780;9.158;2022-07-23T14:51:53;17.07;;;16.17;;
727;SDS011;347;48.780;9.158;2022-07-23T14:54:19;16.20;;;15.30;;
727;SDS011;347;48.780;9.158;2022-07-23T14:56:46;17.80;;;16.80;;
727;SDS011;347;48.780;9.158;2022-07-23T14:59:12;16.73;;;15.90;;
727;SDS011;347;48.780;9.158;2022-07-23T15:01:37;16.73;;;15.93;;
727;SDS011;347;48.780;9.158;2022-07-23T15:04:04;16.23;;;15.43;;
727;SDS011;347;48.780;9.158;2022-07-23T15:06:31;16.53;;;15.83;;
727;SDS011;347;48.780;9.158;2022-07-23T15:08:58;16.67;;;15.93;;
727;SDS011;347;48.780;9.158;2022-07-23T15:11:25;18.43;;;17.53;;
727;SDS011;347;48.780;9.158;2022-07-23T15:13:51;17.03;;;16.23;;
727;SDS011;347;48.780;9.158;2022-07-23T15:16:17;16.70;;;15.90;;
727;SDS011;347;48.780;9.158;2022-07-23T15:18:43;17.00;;;16.10;;
727;SDS011;347;48.780;9.158;2022-07-23T15:21:10;17.50;;;16.60;;
727;SDS011;347;48.780;9.158;2022-07-23T15:23:35;18.30;;;17.30;;
727;SDS011;347;48.780;9.158;2022-07-23T15:26:04;18.43;;;17.33;;
727;SDS011;347;48.780;9.158;2022-07-23T15:28:30;18.30;;;17.20;;
727;SDS011;347;48.780;9.158;2022-07-23T15:30:56;17.70;;;16.90;;
727;SDS011;347;48.780;9.158;2022-07-23T15:33:21;16.93;;;16.03;;
727;SDS011;347;48.780;9.158;2022-07-23T15:35:47;16.90;;;16.10;;
727;SDS011;347;48.780;9.158;2022-07-23T15:38:13;18.20;;;17.30;;
727;SDS011;347;48.780;9.158;2022-07-23T15:40:39;17.20;;;16.40;;
727;SDS011;347;48.780;9.158;2022-07-23T15:43:05;17.80;;;16.87;;
727;SDS011;347;48.780;9.158;2022-07-23T15:45:31;17.33;;;16.53;;
727;SDS011;347;48.780;9.158;2022-07-23T15:47:57;17.23;;;16.50;;
727;SDS011;347;48.780;9.158;2022-07-23T15:50:23;17.83;;;16.80;;
727;SDS011;347;48.780;9.158;2022-07-23T15:52:49;17.30;;;16.50;;
727;SDS011;347;48.780;9.158;2022-07-23T15:55:14;17.90;;;16.87;;
727;SDS011;347;48.780;9.158;2022-07-23T15:57:40;17.77;;;16.87;;
727;SDS011;347;48.780;9.158;2022-07-23T16:00:06;17.33;;;16.43;;
727;SDS011;347;48.780;9.158;2022-07-23T16:02:33;18.00;;;17.10;;
727;SDS011;347;48.780;9.158;2022-07-23T16:04:59;17.40;;;16.60;;
727;SDS011;347;48.780;9.158;2022-07-23T16:07:28;17.70;;;16.67;;
727;SDS011;347;48.780;9.158;2022-07-23T16:10:07;17.57;;;16.67;;